Time;durP1;ratioP1;P1;durP2;ratioP2;P2;SDS_P1;SDS_P2;PMS_P1;PMS_P2;Temp;Humidity;BMP_temperature;BMP_pressure;BME280_temperature;BME280_humidity;BME280_pressure;Samples;Min_cycle;Max_cycle;Signal;HPM_P1;HPM_P2
2023/12/06 00:02:22;;;;;;;0.00;0.00;;;;;;;;;;6235292;23;20020;-81
2023/12/06 00:04:48;;;;;;;0.00;0.00;;;;;;;;;;6237084;23;20023;-80
2023/12/06 00:07:13;;;;;;;0.00;0.00;;;;;;;;;;6185726;23;20076;-80
2023/12/06 00:09:39;;;;;;;0.00;0.00;;;;;;;;;;6182604;23;20001;-82
2023/12/06 00:12:04;;;;;;;0.00;0.00;;;;;;;;;;6182508;23;20023;-81
2023/12/06 00:14:30;;;;;;;0.00;0.00;;;;;;;;;;6207146;23;20004;-81
2023/12/06 00:16:56;;;;;;;0.00;0.00;;;;;;;;;;6172729;23;20437;-80
2023/12/06 00:19:22;;;;;;;0.00;0.00;;;;;;;;;;6162789;23;20511;-80
2023/12/06 00:21:48;;;;;;;0.00;0.00;;;;;;;;;;6162536;23;20087;-80
2023/12/06 00:24:13;;;;;;;0.00;0.00;;;;;;;;;;6187174;23;20003;-81
2023/12/06 00:26:42;;;;;;;0.00;0.00;;;;;;;;;;6189435;23;20420;-81
2023/12/06 00:29:07;;;;;;;0.00;0.00;;;;;;;;;;6189510;23;20013;-80
2023/12/06 00:31:33;;;;;;;0.00;0.00;;;;;;;;;;6189006;23;20019;-80
2023/12/06 00:33:59;;;;;;;0.00;0.00;;;;;;;;;;6215665;23;20011;-80
2023/12/06 00:36:24;;;;;;;0.00;0.00;;;;;;;;;;6163830;23;20359;-81
2023/12/06 00:38:49;;;;;;;0.00;0.00;;;;;;;;;;6215486;23;20004;-81
2023/12/06 00:41:15;;;;;;;0.00;0.00;;;;;;;;;;6215365;23;20001;-80
2023/12/06 00:43:40;;;;;;;0.00;0.00;;;;;;;;;;6215393;23;20371;-81
2023/12/06 00:46:06;;;;;;;0.00;0.00;;;;;;;;;;6188544;23;20080;-80
2023/12/06 00:48:31;;;;;;;0.00;0.00;;;;;;;;;;6215089;23;20445;-81
2023/12/06 00:50:58;;;;;;;0.00;0.00;;;;;;;;;;6163709;23;20011;-81
2023/12/06 00:53:24;;;;;;;0.00;0.00;;;;;;;;;;6189274;23;20431;-81
2023/12/06 00:55:49;;;;;;;0.00;0.00;;;;;;;;;;6188468;23;20088;-81
2023/12/06 00:58:15;;;;;;;0.00;0.00;;;;;;;;;;6163244;23;20054;-81
2023/12/06 01:00:40;;;;;;;0.00;0.00;;;;;;;;;;6163531;23;20320;-81
2023/12/06 01:03:06;;;;;;;0.00;0.00;;;;;;;;;;6162055;23;20019;-81
2023/12/06 01:05:32;;;;;;;0.00;0.00;;;;;;;;;;6162909;23;20004;-81
2023/12/06 01:07:57;;;;;;;0.00;0.00;;;;;;;;;;6188191;23;20335;-81
2023/12/06 01:10:23;;;;;;;0.00;0.00;;;;;;;;;;6139161;23;20009;-81
2023/12/06 01:12:49;;;;;;;0.00;0.00;;;;;;;;;;6188235;23;20011;-81
2023/12/06 01:15:14;;;;;;;0.00;0.00;;;;;;;;;;6188114;23;20399;-80
2023/12/06 01:17:40;;;;;;;0.00;0.00;;;;;;;;;;6163273;23;20005;-81
2023/12/06 01:20:06;;;;;;;0.00;0.00;;;;;;;;;;6163096;23;20016;-81
2023/12/06 01:22:31;;;;;;;0.00;0.00;;;;;;;;;;6214473;23;20550;-81
2023/12/06 01:24:58;;;;;;;0.00;0.00;;;;;;;;;;6188415;23;20008;-81
2023/12/06 01:27:23;;;;;;;0.00;0.00;;;;;;;;;;6167141;22;20001;-82
2023/12/06 01:29:49;;;;;;;0.00;0.00;;;;;;;;;;6217972;23;20010;-80
2023/12/06 01:32:14;;;;;;;0.00;0.00;;;;;;;;;;6244530;23;20011;-80
2023/12/06 01:34:40;;;;;;;0.00;0.00;;;;;;;;;;6218227;23;20008;-80
2023/12/06 01:37:05;;;;;;;0.00;0.00;;;;;;;;;;6217982;23;20501;-80
2023/12/06 01:39:31;;;;;;;0.00;0.00;;;;;;;;;;6244593;23;20073;-80
2023/12/06 01:41:57;;;;;;;0.00;0.00;;;;;;;;;;6242933;23;20007;-81
2023/12/06 01:44:22;;;;;;;0.00;0.00;;;;;;;;;;6244856;23;20008;-81
2023/12/06 01:46:48;;;;;;;0.00;0.00;;;;;;;;;;6217827;23;20022;-81
2023/12/06 01:49:13;;;;;;;0.00;0.00;;;;;;;;;;6217413;23;20482;-81
2023/12/06 01:51:39;;;;;;;0.55;0.00;;;;;;;;;;6217949;23;20091;-81
2023/12/06 01:54:04;;;;;;;0.00;0.00;;;;;;;;;;6217741;23;20011;-80
2023/12/06 01:56:30;;;;;;;0.00;0.00;;;;;;;;;;6217692;23;20016;-81
2023/12/06 01:58:55;;;;;;;0.00;0.00;;;;;;;;;;6192844;23;20015;-80
2023/12/06 02:01:21;;;;;;;0.00;0.00;;;;;;;;;;6244534;23;20035;-80
2023/12/06 02:03:46;;;;;;;0.00;0.00;;;;;;;;;;6217325;23;20011;-81
2023/12/06 02:06:12;;;;;;;0.00;0.00;;;;;;;;;;6217984;23;20028;-81
2023/12/06 02:08:38;;;;;;;0.00;0.00;;;;;;;;;;6216529;23;20012;-81
2023/12/06 02:11:04;;;;;;;0.00;0.00;;;;;;;;;;6217274;23;20004;-81
2023/12/06 02:13:29;;;;;;;0.00;0.00;;;;;;;;;;6242788;23;20004;-81
2023/12/06 02:15:55;;;;;;;0.00;0.00;;;;;;;;;;6192461;23;20005;-81
2023/12/06 02:18:21;;;;;;;0.00;0.00;;;;;;;;;;6217875;23;20372;-80
2023/12/06 02:20:46;;;;;;;0.00;0.00;;;;;;;;;;6244182;23;20453;-80
2023/12/06 02:23:12;;;;;;;0.00;0.00;;;;;;;;;;6244209;23;20008;-81
2023/12/06 02:25:37;;;;;;;0.00;0.00;;;;;;;;;;6217302;23;20012;-81
2023/12/06 02:28:03;;;;;;;0.00;0.00;;;;;;;;;;6217189;23;20022;-81
2023/12/06 02:30:28;;;;;;;0.00;0.00;;;;;;;;;;6244043;23;20028;-82
2023/12/06 02:32:54;;;;;;;0.00;0.00;;;;;;;;;;6217397;23;20004;-81
2023/12/06 02:35:46;;;;;;;0.00;0.00;;;;;;;;;;6217322;23;20431;-80
2023/12/06 02:38:11;;;;;;;0.00;0.00;;;;;;;;;;6210837;23;20012;-81
2023/12/06 02:40:37;;;;;;;0.00;0.00;;;;;;;;;;6192531;23;19996;-81
2023/12/06 02:43:02;;;;;;;0.00;0.00;;;;;;;;;;6217362;23;20004;-80
2023/12/06 02:45:28;;;;;;;0.00;0.00;;;;;;;;;;6192170;23;20075;-81
2023/12/06 02:47:54;;;;;;;0.00;0.00;;;;;;;;;;6216556;23;20014;-79
2023/12/06 02:50:19;;;;;;;0.00;0.00;;;;;;;;;;6217308;23;20028;-80
2023/12/06 02:52:45;;;;;;;0.00;0.00;;;;;;;;;;6217480;23;20415;-81
2023/12/06 02:55:10;;;;;;;0.00;0.00;;;;;;;;;;6192410;23;20000;-81
2023/12/06 02:57:36;;;;;;;0.00;0.00;;;;;;;;;;6217160;23;20008;-81
2023/12/06 03:00:01;;;;;;;0.00;0.00;;;;;;;;;;6217408;23;20004;-80
2023/12/06 03:02:27;;;;;;;0.00;0.00;;;;;;;;;;6216969;23;20031;-80
2023/12/06 03:04:52;;;;;;;0.00;0.00;;;;;;;;;;6243891;23;20020;-80
2023/12/06 03:07:18;;;;;;;0.00;0.00;;;;;;;;;;6192272;23;20083;-80
2023/12/06 03:09:44;;;;;;;0.00;0.00;;;;;;;;;;6217138;23;20346;-81
2023/12/06 03:12:11;;;;;;;0.00;0.00;;;;;;;;;;6216134;23;20004;-80
2023/12/06 03:14:36;;;;;;;0.00;0.00;;;;;;;;;;6217360;23;20053;-80
2023/12/06 03:17:02;;;;;;;0.00;0.00;;;;;;;;;;6216687;23;20012;-81
2023/12/06 03:19:27;;;;;;;0.00;0.00;;;;;;;;;;6244039;23;20394;-80
2023/12/06 03:21:53;;;;;;;0.00;0.00;;;;;;;;;;6242465;23;20016;-80
2023/12/06 03:24:18;;;;;;;0.00;0.00;;;;;;;;;;6217330;23;20004;-81
2023/12/06 03:26:44;;;;;;;0.00;0.00;;;;;;;;;;6216981;23;20011;-81
2023/12/06 03:29:09;;;;;;;0.00;0.00;;;;;;;;;;6191944;23;20015;-80
2023/12/06 03:31:35;;;;;;;0.00;0.00;;;;;;;;;;6216572;23;20008;-81
2023/12/06 03:34:00;;;;;;;0.00;0.00;;;;;;;;;;6217067;23;19996;-80
2023/12/06 03:36:26;;;;;;;0.00;0.00;;;;;;;;;;6216863;23;20004;-80
2023/12/06 03:38:51;;;;;;;0.00;0.00;;;;;;;;;;6216877;23;20000;-80
2023/12/06 03:41:19;;;;;;;0.00;0.00;;;;;;;;;;6242070;23;20004;-80
2023/12/06 03:43:44;;;;;;;0.00;0.00;;;;;;;;;;6243743;23;20007;-80
2023/12/06 03:46:10;;;;;;;0.00;0.00;;;;;;;;;;6191638;23;20008;-80
2023/12/06 03:48:35;;;;;;;0.00;0.00;;;;;;;;;;6216706;23;20008;-80
2023/12/06 03:51:01;;;;;;;0.00;0.00;;;;;;;;;;6216864;23;20027;-80
2023/12/06 03:53:26;;;;;;;0.00;0.00;;;;;;;;;;6243640;23;20477;-80
2023/12/06 03:55:52;;;;;;;0.00;0.00;;;;;;;;;;6243495;23;20461;-80
2023/12/06 03:58:18;;;;;;;0.00;0.00;;;;;;;;;;6243658;23;20008;-80
2023/12/06 04:00:43;;;;;;;0.00;0.00;;;;;;;;;;6244470;23;20011;-81
2023/12/06 04:03:09;;;;;;;0.00;0.00;;;;;;;;;;6193724;23;20016;-80
2023/12/06 04:05:34;;;;;;;0.00;0.00;;;;;;;;;;6219054;23;20004;-80
2023/12/06 04:08:00;;;;;;;0.00;0.00;;;;;;;;;;6246147;23;20031;-79
2023/12/06 04:10:25;;;;;;;0.00;0.00;;;;;;;;;;6219291;23;20005;-80
2023/12/06 04:12:51;;;;;;;0.00;0.00;;;;;;;;;;6217937;23;20031;-80
2023/12/06 04:15:17;;;;;;;0.00;0.00;;;;;;;;;;6217563;23;20066;-81
2023/12/06 04:17:42;;;;;;;0.00;0.00;;;;;;;;;;6218770;23;20008;-80
2023/12/06 04:20:08;;;;;;;0.00;0.00;;;;;;;;;;6193743;23;20098;-81
2023/12/06 04:22:35;;;;;;;0.00;0.00;;;;;;;;;;6243973;23;20004;-80
2023/12/06 04:25:01;;;;;;;0.00;0.00;;;;;;;;;;6218622;23;20007;-81
2023/12/06 04:27:27;;;;;;;0.00;0.00;;;;;;;;;;6218143;23;20364;-80
2023/12/06 04:29:52;;;;;;;0.00;0.00;;;;;;;;;;6193698;23;20000;-80
2023/12/06 04:32:18;;;;;;;0.00;0.00;;;;;;;;;;6245269;23;20423;-80
2023/12/06 04:34:54;;;;;;;0.00;0.00;;;;;;;;;;6218596;23;20007;-80
2023/12/06 04:37:21;;;;;;;0.00;0.00;;;;;;;;;;6219962;23;20423;-79
2023/12/06 04:39:46;;;;;;;0.00;0.00;;;;;;;;;;6218724;23;19992;-80
2023/12/06 04:42:12;;;;;;;0.00;0.00;;;;;;;;;;6193354;23;20004;-80
2023/12/06 04:44:38;;;;;;;0.00;0.00;;;;;;;;;;6193608;23;20407;-80
2023/12/06 04:47:03;;;;;;;0.00;0.00;;;;;;;;;;6218932;23;20004;-81
2023/12/06 04:49:29;;;;;;;0.00;0.00;;;;;;;;;;6218129;23;20454;-80
2023/12/06 04:51:54;;;;;;;0.00;0.00;;;;;;;;;;6245968;23;20007;-80
2023/12/06 04:54:20;;;;;;;0.00;0.00;;;;;;;;;;6245455;23;20000;-80
2023/12/06 04:56:45;;;;;;;0.00;0.00;;;;;;;;;;6218045;23;20031;-80
2023/12/06 04:59:11;;;;;;;0.00;0.00;;;;;;;;;;6218102;23;20035;-80
2023/12/06 05:01:37;;;;;;;0.00;0.00;;;;;;;;;;6218368;23;20000;-80
2023/12/06 05:04:03;;;;;;;0.00;0.00;;;;;;;;;;6218234;23;20027;-80
2023/12/06 05:06:28;;;;;;;0.00;0.00;;;;;;;;;;6193708;23;20000;-81
2023/12/06 05:08:54;;;;;;;0.00;0.00;;;;;;;;;;6244799;23;20058;-80
2023/12/06 05:11:19;;;;;;;0.00;0.00;;;;;;;;;;6244437;23;20075;-80
2023/12/06 05:13:45;;;;;;;0.00;0.00;;;;;;;;;;6218215;23;20038;-81
2023/12/06 05:16:10;;;;;;;0.00;0.00;;;;;;;;;;6243401;23;20071;-84
2023/12/06 05:18:36;;;;;;;0.00;0.00;;;;;;;;;;6217870;23;20493;-84
2023/12/06 05:21:01;;;;;;;0.00;0.00;;;;;;;;;;6244686;23;20045;-84
2023/12/06 05:23:27;;;;;;;0.00;0.00;;;;;;;;;;6245372;23;20054;-85
2023/12/06 05:25:52;;;;;;;0.00;0.00;;;;;;;;;;6217992;23;20359;-85
2023/12/06 05:28:18;;;;;;;0.00;0.00;;;;;;;;;;6244152;23;20034;-85
2023/12/06 05:30:44;;;;;;;0.00;0.00;;;;;;;;;;6217435;23;20004;-85
2023/12/06 05:33:09;;;;;;;0.00;0.00;;;;;;;;;;6217511;23;20016;-85
2023/12/06 05:35:35;;;;;;;0.00;0.00;;;;;;;;;;6217086;23;20009;-84
2023/12/06 05:38:00;;;;;;;0.00;0.00;;;;;;;;;;6243727;23;20376;-85
2023/12/06 05:40:26;;;;;;;0.00;0.00;;;;;;;;;;6216998;23;20008;-82
2023/12/06 05:42:51;;;;;;;0.00;0.00;;;;;;;;;;6216265;23;20006;-79
2023/12/06 05:45:17;;;;;;;0.00;0.00;;;;;;;;;;6216268;23;20054;-82
2023/12/06 05:47:43;;;;;;;0.00;0.00;;;;;;;;;;6216031;23;20071;-81
2023/12/06 05:50:26;;;;;;;0.00;0.00;;;;;;;;;;6242409;23;20364;-80
2023/12/06 05:52:55;;;;;;;0.00;0.00;;;;;;;;;;6213363;23;20427;-80
2023/12/06 05:55:21;;;;;;;0.00;0.00;;;;;;;;;;6214059;23;20419;-82
2023/12/06 05:57:49;;;;;;;0.00;0.00;;;;;;;;;;6240825;23;20056;-80
2023/12/06 06:00:17;;;;;;;0.00;0.00;;;;;;;;;;6237711;23;20007;-85
2023/12/06 06:02:43;;;;;;;0.00;0.00;;;;;;;;;;6211348;23;20008;-82
2023/12/06 06:05:10;;;;;;;0.00;0.00;;;;;;;;;;6210041;23;20062;-81
2023/12/06 06:07:37;;;;;;;0.00;0.00;;;;;;;;;;6212284;23;20433;-79
2023/12/06 06:10:07;;;;;;;0.00;0.00;;;;;;;;;;6239289;23;20123;-84
2023/12/06 06:12:59;;;;;;;0.00;0.00;;;;;;;;;;6160531;23;20438;-83
2023/12/06 06:15:25;;;;;;;0.00;0.00;;;;;;;;;;6209006;23;20004;-80
2023/12/06 06:17:50;;;;;;;0.00;0.00;;;;;;;;;;6211018;23;20008;-79
2023/12/06 06:20:16;;;;;;;0.00;0.00;;;;;;;;;;6238566;23;20003;-80
2023/12/06 06:22:42;;;;;;;0.00;0.00;;;;;;;;;;6238192;23;20061;-80
2023/12/06 06:25:09;;;;;;;0.00;0.00;;;;;;;;;;6238124;23;20008;-82
2023/12/06 06:27:34;;;;;;;0.00;0.00;;;;;;;;;;6236838;23;20019;-81
2023/12/06 06:30:00;;;;;;;0.00;0.00;;;;;;;;;;6213333;23;20347;-81
2023/12/06 06:32:26;;;;;;;0.00;0.00;;;;;;;;;;6241611;23;20024;-84
2023/12/06 06:34:51;;;;;;;0.00;0.00;;;;;;;;;;6241702;23;20450;-89
2023/12/06 06:37:18;;;;;;;0.00;0.00;;;;;;;;;;6217815;23;20012;-86
2023/12/06 06:39:43;;;;;;;0.00;0.00;;;;;;;;;;6239105;23;20405;-83
2023/12/06 06:42:09;;;;;;;0.00;0.00;;;;;;;;;;6239791;23;20003;-81
2023/12/06 06:44:35;;;;;;;0.00;0.00;;;;;;;;;;6239177;23;20012;-78
2023/12/06 06:47:02;;;;;;;0.00;0.00;;;;;;;;;;6215208;23;20008;-92
2023/12/06 06:49:27;;;;;;;0.00;0.00;;;;;;;;;;6218881;23;20016;-87
2023/12/06 06:51:53;;;;;;;0.00;0.00;;;;;;;;;;6241951;23;20330;-89
2023/12/06 06:54:19;;;;;;;0.00;0.00;;;;;;;;;;6213909;23;20008;-88
2023/12/06 06:56:44;;;;;;;0.00;0.00;;;;;;;;;;6188113;23;20000;-79
2023/12/06 06:59:14;;;;;;;0.00;0.00;;;;;;;;;;6240975;23;20446;-83
2023/12/06 07:01:40;;;;;;;0.00;0.00;;;;;;;;;;6214969;23;20347;-86
2023/12/06 07:04:05;;;;;;;0.00;0.00;;;;;;;;;;6215686;23;20435;-87
2023/12/06 07:06:31;;;;;;;0.00;0.00;;;;;;;;;;6215289;23;19996;-85
2023/12/06 07:08:56;;;;;;;0.00;0.00;;;;;;;;;;6240890;23;20012;-83
2023/12/06 07:11:22;;;;;;;0.00;0.00;;;;;;;;;;6240521;23;20368;-83
2023/12/06 07:13:51;;;;;;;0.00;0.00;;;;;;;;;;6239992;23;20004;-80
2023/12/06 07:16:17;;;;;;;0.00;0.00;;;;;;;;;;6212033;23;20004;-84
2023/12/06 07:18:44;;;;;;;0.00;0.00;;;;;;;;;;6214828;23;20453;-82
2023/12/06 07:21:11;;;;;;;0.00;0.00;;;;;;;;;;6238746;23;20110;-86
2023/12/06 07:23:54;;;;;;;0.00;0.00;;;;;;;;;;6219363;23;20004;-89
2023/12/06 07:26:19;;;;;;;0.00;0.00;;;;;;;;;;6228240;23;20087;-93
2023/12/06 07:28:45;;;;;;;0.00;0.00;;;;;;;;;;6194300;23;20031;-84
2023/12/06 07:31:11;;;;;;;0.00;0.00;;;;;;;;;;6223344;23;20008;-91
2023/12/06 07:33:39;;;;;;;0.00;0.00;;;;;;;;;;6194838;23;20008;-88
2023/12/06 07:36:06;;;;;;;0.00;0.00;;;;;;;;;;6193338;23;20039;-82
2023/12/06 07:39:10;;;;;;;0.00;0.00;;;;;;;;;;6218590;23;20074;-88
2023/12/06 07:41:39;;;;;;;0.00;0.00;;;;;;;;;;6217316;23;20086;-85
2023/12/06 07:44:05;;;;;;;0.00;0.00;;;;;;;;;;6192832;23;20059;-83
2023/12/06 07:46:30;;;;;;;0.00;0.00;;;;;;;;;;6243367;23;20347;-84
2023/12/06 07:49:41;;;;;;;0.00;0.00;;;;;;;;;;6244338;23;20407;-86
2023/12/06 07:52:07;;;;;;;0.00;0.00;;;;;;;;;;6224891;23;20023;-83
2023/12/06 07:54:52;;;;;;;0.08;0.00;;;;;;;;;;6205386;23;20004;-83
2023/12/06 08:00:13;;;;;;;0.00;0.00;;;;;;;;;;6237740;22;20484;-89
2023/12/06 08:02:56;;;;;;;0.00;0.00;;;;;;;;;;6219579;23;20485;-93
2023/12/06 08:05:23;;;;;;;0.00;0.00;;;;;;;;;;6191271;23;20759;-88
2023/12/06 08:10:33;;;;;;;0.00;0.00;;;;;;;;;;6246403;22;20468;-90
2023/12/06 08:12:59;;;;;;;0.00;0.00;;;;;;;;;;6192298;23;20016;-90
2023/12/06 08:15:28;;;;;;;0.00;0.00;;;;;;;;;;6210109;22;20076;-89
2023/12/06 08:17:54;;;;;;;0.00;0.00;;;;;;;;;;6228103;23;20008;-90
2023/12/06 08:20:19;;;;;;;0.00;0.00;;;;;;;;;;6207947;23;20009;-86
2023/12/06 08:22:45;;;;;;;0.00;0.00;;;;;;;;;;6202397;23;20004;-85
2023/12/06 08:25:11;;;;;;;0.00;0.00;;;;;;;;;;6207562;23;20316;-87
2023/12/06 08:27:37;;;;;;;0.00;0.00;;;;;;;;;;6207422;23;20088;-82
2023/12/06 08:30:06;;;;;;;0.00;0.00;;;;;;;;;;6237053;23;20439;-84
2023/12/06 08:32:32;;;;;;;0.00;0.00;;;;;;;;;;6234233;23;19997;-82
2023/12/06 08:35:26;;;;;;;0.00;0.00;;;;;;;;;;6207053;23;20005;-83
2023/12/06 08:38:05;;;;;;;0.00;0.00;;;;;;;;;;6208389;23;20083;-83
2023/12/06 08:40:55;;;;;;;0.00;0.00;;;;;;;;;;6209009;23;20009;-83
2023/12/06 08:43:20;;;;;;;0.00;0.00;;;;;;;;;;6208864;23;20007;-84
2023/12/06 08:45:49;;;;;;;0.00;0.00;;;;;;;;;;6208173;23;20395;-84
2023/12/06 08:48:14;;;;;;;0.00;0.00;;;;;;;;;;6211549;23;20012;-83
2023/12/06 08:50:40;;;;;;;0.00;0.00;;;;;;;;;;6234683;23;20282;-83
2023/12/06 08:53:08;;;;;;;0.00;0.00;;;;;;;;;;6209656;23;20004;-83
2023/12/06 08:55:37;;;;;;;0.00;0.00;;;;;;;;;;6207771;23;20008;-84
2023/12/06 08:58:08;;;;;;;0.00;0.00;;;;;;;;;;6209894;23;20502;-84
2023/12/06 09:00:34;;;;;;;0.00;0.00;;;;;;;;;;6209199;23;20420;-83
2023/12/06 09:03:06;;;;;;;0.00;0.00;;;;;;;;;;6199683;23;20015;-83
2023/12/06 09:05:35;;;;;;;0.00;0.00;;;;;;;;;;6204649;23;20040;-85
2023/12/06 09:08:00;;;;;;;0.00;0.00;;;;;;;;;;6209955;23;20063;-84
2023/12/06 09:10:26;;;;;;;0.00;0.00;;;;;;;;;;6181447;23;20427;-81
2023/12/06 09:12:52;;;;;;;0.00;0.00;;;;;;;;;;6206513;23;20008;-80
2023/12/06 09:15:18;;;;;;;0.00;0.00;;;;;;;;;;6207098;23;20090;-78
2023/12/06 09:17:44;;;;;;;0.00;0.00;;;;;;;;;;6208201;23;20005;-81
2023/12/06 09:20:11;;;;;;;0.00;0.00;;;;;;;;;;6206489;23;20416;-83
2023/12/06 09:22:36;;;;;;;0.00;0.00;;;;;;;;;;6207552;23;20083;-82
2023/12/06 09:25:04;;;;;;;0.00;0.00;;;;;;;;;;6209487;23;20004;-84
2023/12/06 09:27:31;;;;;;;0.00;0.00;;;;;;;;;;6233330;23;20011;-89
2023/12/06 09:30:00;;;;;;;0.00;0.00;;;;;;;;;;6238982;23;20008;-87
2023/12/06 09:32:26;;;;;;;0.57;0.00;;;;;;;;;;6188134;23;20021;-92
2023/12/06 09:34:52;;;;;;;0.00;0.00;;;;;;;;;;6221665;23;20084;-86
2023/12/06 09:37:18;;;;;;;0.00;0.00;;;;;;;;;;6209906;23;20028;-85
2023/12/06 09:39:43;;;;;;;0.00;0.00;;;;;;;;;;6235866;23;20088;-82
2023/12/06 09:42:10;;;;;;;0.00;0.00;;;;;;;;;;6210860;23;20009;-84
2023/12/06 09:44:41;;;;;;;0.00;0.00;;;;;;;;;;6211341;23;20015;-85
2023/12/06 09:47:07;;;;;;;0.00;0.00;;;;;;;;;;6185091;23;20005;-85
2023/12/06 09:49:33;;;;;;;0.00;0.00;;;;;;;;;;6233994;23;20063;-83
2023/12/06 09:52:03;;;;;;;0.00;0.00;;;;;;;;;;6216178;23;20115;-88
2023/12/06 09:54:29;;;;;;;0.00;0.00;;;;;;;;;;6211185;23;20008;-90
2023/12/06 09:56:54;;;;;;;0.00;0.00;;;;;;;;;;6208642;23;20209;-86
2023/12/06 09:59:20;;;;;;;0.00;0.00;;;;;;;;;;6223114;23;20380;-86
2023/12/06 10:01:45;;;;;;;0.00;0.00;;;;;;;;;;6235961;23;20012;-83
2023/12/06 10:04:11;;;;;;;0.00;0.00;;;;;;;;;;6220821;23;20000;-86
2023/12/06 10:06:36;;;;;;;0.00;0.00;;;;;;;;;;6220299;23;20043;-82
2023/12/06 10:09:03;;;;;;;0.00;0.00;;;;;;;;;;6213813;23;20074;-83
2023/12/06 10:11:29;;;;;;;0.00;0.00;;;;;;;;;;6228105;23;20091;-82
2023/12/06 10:13:54;;;;;;;0.00;0.00;;;;;;;;;;6257812;22;19993;-85
2023/12/06 10:17:22;;;;;;;0.00;0.00;;;;;;;;;;6233241;22;20012;-89
2023/12/06 10:19:49;;;;;;;0.00;0.00;;;;;;;;;;6233199;23;20008;-86
2023/12/06 10:22:14;;;;;;;0.00;0.00;;;;;;;;;;6234007;23;19993;-82
2023/12/06 10:24:43;;;;;;;0.00;0.00;;;;;;;;;;6233674;23;20000;-83
2023/12/06 10:27:12;;;;;;;0.00;0.00;;;;;;;;;;6232152;23;20058;-82
2023/12/06 10:29:38;;;;;;;0.00;0.00;;;;;;;;;;6227920;23;20135;-84
2023/12/06 10:32:04;;;;;;;0.00;0.00;;;;;;;;;;6215711;23;20380;-83
2023/12/06 10:35:11;;;;;;;0.00;0.00;;;;;;;;;;6213704;23;20036;-82
2023/12/06 10:37:43;;;;;;;0.00;0.00;;;;;;;;;;6151168;23;20009;-85
2023/12/06 10:40:09;;;;;;;0.00;0.00;;;;;;;;;;6203207;23;20013;-84
2023/12/06 10:42:35;;;;;;;0.00;0.00;;;;;;;;;;6217325;23;20015;-87
2023/12/06 10:45:01;;;;;;;0.00;0.00;;;;;;;;;;6222123;23;20008;-86
2023/12/06 10:47:27;;;;;;;0.00;0.00;;;;;;;;;;6221809;23;20019;-85
2023/12/06 10:49:54;;;;;;;0.00;0.00;;;;;;;;;;6196682;23;20008;-86
2023/12/06 10:52:20;;;;;;;0.00;0.00;;;;;;;;;;6190076;23;20009;-80
2023/12/06 10:57:43;;;;;;;0.00;0.00;;;;;;;;;;6246872;22;20344;-84
2023/12/06 11:00:13;;;;;;;0.00;0.00;;;;;;;;;;6243817;23;20311;-90
2023/12/06 11:02:40;;;;;;;0.00;0.00;;;;;;;;;;6224450;22;20017;-83
2023/12/06 11:05:13;;;;;;;0.00;0.00;;;;;;;;;;6193614;23;20004;-81
2023/12/06 11:11:18;;;;;;;0.00;0.00;;;;;;;;;;6153520;23;20015;-85
2023/12/06 11:13:59;;;;;;;0.00;0.00;;;;;;;;;;6218792;23;20309;-79
2023/12/06 11:17:04;;;;;;;0.00;0.00;;;;;;;;;;6209668;23;20000;-82
2023/12/06 11:19:33;;;;;;;0.00;0.00;;;;;;;;;;6211837;23;20013;-81
2023/12/06 11:22:05;;;;;;;0.00;0.00;;;;;;;;;;6209106;23;20446;-82
2023/12/06 11:24:35;;;;;;;0.00;0.00;;;;;;;;;;6211927;23;20027;-85
2023/12/06 11:27:01;;;;;;;0.00;0.00;;;;;;;;;;6185009;23;20001;-82
2023/12/06 11:29:26;;;;;;;0.00;0.00;;;;;;;;;;6208486;23;20066;-84
2023/12/06 11:31:58;;;;;;;0.00;0.00;;;;;;;;;;6160150;23;20036;-85
2023/12/06 11:34:40;;;;;;;0.00;0.00;;;;;;;;;;6206266;23;20012;-86
2023/12/06 11:37:13;;;;;;;0.00;0.00;;;;;;;;;;6206375;23;20005;-84
2023/12/06 11:39:39;;;;;;;0.00;0.00;;;;;;;;;;6183318;23;20083;-86
2023/12/06 11:42:05;;;;;;;0.00;0.00;;;;;;;;;;6209605;23;20005;-86
2023/12/06 11:44:30;;;;;;;0.00;0.00;;;;;;;;;;6205968;23;20012;-84
2023/12/06 11:46:56;;;;;;;0.00;0.00;;;;;;;;;;6206552;23;20009;-82
2023/12/06 11:49:30;;;;;;;0.00;0.00;;;;;;;;;;6204489;23;20123;-86
2023/12/06 11:52:02;;;;;;;0.00;0.00;;;;;;;;;;6208496;23;20148;-85
2023/12/06 11:54:28;;;;;;;0.00;0.00;;;;;;;;;;6208494;23;20431;-84
2023/12/06 11:57:05;;;;;;;0.00;0.00;;;;;;;;;;6206139;23;20001;-84
2023/12/06 11:59:31;;;;;;;0.00;0.00;;;;;;;;;;6207432;23;20009;-85
2023/12/06 12:01:57;;;;;;;0.00;0.00;;;;;;;;;;6204253;23;20005;-85
2023/12/06 12:04:22;;;;;;;0.00;0.00;;;;;;;;;;6205485;23;20012;-85
2023/12/06 12:06:48;;;;;;;0.00;0.00;;;;;;;;;;6205272;23;19997;-86
2023/12/06 12:09:13;;;;;;;0.00;0.00;;;;;;;;;;6180873;23;20012;-85
2023/12/06 12:11:43;;;;;;;0.00;0.00;;;;;;;;;;6182022;23;20323;-86
2023/12/06 12:14:08;;;;;;;0.00;0.00;;;;;;;;;;6208613;23;20005;-86
2023/12/06 12:16:34;;;;;;;0.00;0.00;;;;;;;;;;6211577;23;20027;-86
2023/12/06 12:19:03;;;;;;;0.00;0.00;;;;;;;;;;6185368;23;20723;-85
2023/12/06 12:21:29;;;;;;;0.00;0.00;;;;;;;;;;6213153;23;20069;-87
2023/12/06 12:23:57;;;;;;;0.00;0.00;;;;;;;;;;6213851;23;20030;-86
2023/12/06 12:26:23;;;;;;;0.00;0.00;;;;;;;;;;6209688;23;20192;-85
2023/12/06 12:28:48;;;;;;;0.00;0.00;;;;;;;;;;6209594;23;20012;-85
2023/12/06 12:31:20;;;;;;;0.00;0.00;;;;;;;;;;6206994;23;20007;-86
2023/12/06 12:33:45;;;;;;;0.00;0.00;;;;;;;;;;6183428;23;20016;-84
2023/12/06 12:36:12;;;;;;;0.00;0.00;;;;;;;;;;6209810;23;19997;-85
2023/12/06 12:38:38;;;;;;;0.00;0.00;;;;;;;;;;6210933;23;20005;-85
2023/12/06 12:41:07;;;;;;;0.00;0.00;;;;;;;;;;6184467;23;20427;-86
2023/12/06 12:43:33;;;;;;;0.00;0.00;;;;;;;;;;6210829;23;20024;-86
2023/12/06 12:45:58;;;;;;;0.00;0.00;;;;;;;;;;6210253;23;20428;-85
2023/12/06 12:48:24;;;;;;;0.00;0.00;;;;;;;;;;6210817;23;20094;-86
2023/12/06 12:50:49;;;;;;;0.00;0.00;;;;;;;;;;6212626;23;20363;-85
2023/12/06 12:53:15;;;;;;;0.00;0.00;;;;;;;;;;6185890;23;20009;-85
2023/12/06 12:55:41;;;;;;;0.00;0.00;;;;;;;;;;6211695;23;20004;-85
2023/12/06 12:58:08;;;;;;;0.00;0.00;;;;;;;;;;6212123;23;20018;-84
2023/12/06 13:00:35;;;;;;;0.00;0.00;;;;;;;;;;6212954;23;20020;-84
2023/12/06 13:03:01;;;;;;;0.00;0.00;;;;;;;;;;6211660;23;20007;-84
2023/12/06 13:05:30;;;;;;;0.00;0.00;;;;;;;;;;6212959;23;20005;-85
2023/12/06 13:07:59;;;;;;;0.00;0.00;;;;;;;;;;6212463;23;20023;-84
2023/12/06 13:10:28;;;;;;;0.00;0.00;;;;;;;;;;6212140;23;20490;-85
2023/12/06 13:12:58;;;;;;;0.00;0.00;;;;;;;;;;6188907;23;20044;-84
2023/12/06 13:15:23;;;;;;;0.00;0.00;;;;;;;;;;6212952;23;20005;-84
2023/12/06 13:17:50;;;;;;;0.00;0.00;;;;;;;;;;6212942;23;20008;-84
2023/12/06 13:20:16;;;;;;;0.00;0.00;;;;;;;;;;6212623;23;20090;-84
2023/12/06 13:22:41;;;;;;;0.00;0.00;;;;;;;;;;6163260;23;20009;-83
2023/12/06 13:25:07;;;;;;;0.00;0.00;;;;;;;;;;6214069;23;20001;-84
2023/12/06 13:27:33;;;;;;;0.00;0.00;;;;;;;;;;6214408;23;20002;-84
2023/12/06 13:29:59;;;;;;;0.00;0.00;;;;;;;;;;6214392;23;20474;-84
2023/12/06 13:32:24;;;;;;;0.00;0.00;;;;;;;;;;6214056;23;20115;-84
2023/12/06 13:34:50;;;;;;;0.00;0.00;;;;;;;;;;6185388;23;20094;-84
2023/12/06 13:37:15;;;;;;;0.00;0.00;;;;;;;;;;6162964;23;20083;-84
2023/12/06 13:39:42;;;;;;;0.00;0.00;;;;;;;;;;6187474;23;20357;-84
2023/12/06 13:42:14;;;;;;;0.00;0.00;;;;;;;;;;6187692;23;20304;-83
2023/12/06 13:44:40;;;;;;;0.00;0.00;;;;;;;;;;6214036;23;20069;-85
2023/12/06 13:47:06;;;;;;;0.00;0.00;;;;;;;;;;6187456;23;20439;-84
2023/12/06 13:49:31;;;;;;;0.00;0.00;;;;;;;;;;6212975;23;19996;-84
2023/12/06 13:51:57;;;;;;;0.00;0.00;;;;;;;;;;6214607;23;20004;-84
2023/12/06 13:54:22;;;;;;;0.00;0.00;;;;;;;;;;6214601;23;20024;-84
2023/12/06 13:56:48;;;;;;;0.00;0.00;;;;;;;;;;6212951;23;20107;-85
2023/12/06 13:59:16;;;;;;;0.00;0.00;;;;;;;;;;6212696;23;20007;-84
2023/12/06 14:01:42;;;;;;;0.00;0.00;;;;;;;;;;6216809;23;20016;-85
2023/12/06 14:04:08;;;;;;;0.00;0.00;;;;;;;;;;6224630;23;20032;-84
2023/12/06 14:06:33;;;;;;;0.00;0.00;;;;;;;;;;6194396;23;20482;-84
2023/12/06 14:08:59;;;;;;;0.00;0.00;;;;;;;;;;6222074;23;20008;-85
2023/12/06 14:11:26;;;;;;;0.00;0.00;;;;;;;;;;6224953;23;20013;-85
2023/12/06 14:13:52;;;;;;;0.00;0.00;;;;;;;;;;6221820;23;20063;-84
2023/12/06 14:16:21;;;;;;;0.00;0.00;;;;;;;;;;6212266;23;20004;-85
2023/12/06 14:18:50;;;;;;;0.00;0.00;;;;;;;;;;6212400;23;20420;-85
2023/12/06 14:21:16;;;;;;;0.00;0.00;;;;;;;;;;6214447;23;20096;-85
2023/12/06 14:23:41;;;;;;;0.00;0.00;;;;;;;;;;6211970;23;20008;-84
2023/12/06 14:26:09;;;;;;;0.00;0.00;;;;;;;;;;6213743;23;20001;-84
2023/12/06 14:28:35;;;;;;;0.00;0.00;;;;;;;;;;6212463;23;20066;-85
2023/12/06 14:31:00;;;;;;;0.00;0.00;;;;;;;;;;6212065;23;20428;-85
2023/12/06 14:33:26;;;;;;;0.00;0.00;;;;;;;;;;6213649;23;20011;-84
2023/12/06 14:35:51;;;;;;;0.00;0.00;;;;;;;;;;6210796;23;20079;-84
2023/12/06 14:38:17;;;;;;;0.00;0.00;;;;;;;;;;6213441;23;20005;-85
2023/12/06 14:40:42;;;;;;;0.00;0.00;;;;;;;;;;6213347;23;20007;-85
2023/12/06 14:43:08;;;;;;;0.00;0.00;;;;;;;;;;6211937;23;20008;-84
2023/12/06 14:45:34;;;;;;;0.00;0.00;;;;;;;;;;6211842;23;20079;-85
2023/12/06 14:48:00;;;;;;;0.00;0.00;;;;;;;;;;6211884;23;20011;-85
2023/12/06 14:50:25;;;;;;;0.00;0.00;;;;;;;;;;6213384;23;20504;-85
2023/12/06 14:52:51;;;;;;;0.00;0.00;;;;;;;;;;6237022;23;20009;-85
2023/12/06 14:55:16;;;;;;;0.00;0.00;;;;;;;;;;6186714;23;20432;-85
2023/12/06 14:57:42;;;;;;;0.00;0.00;;;;;;;;;;6213390;23;20415;-85